Airfield :
LOGIN :

Register | Disclaimer

   EN    FR    IT 

 










Legend :    VFR   Marginal VFR   IFR   Intensive IFR   Very Intensive IFR
Visi :
Ceiling :
>= 8 km
>= 3000ft
5 to 8 km
1000 to 3000 ft
1500m to 5 km
500 to 1000 ft
800 to 1500m
200 to 500 ft
< 800m
< 200 ft
Symbols :   Thunderstorms  Fog  Heavy snow  Heavy precipitations  Wind > 20 kt
SIGMETs :     Misc.  Thunderstorms  Icing  Turbulence  Mountain Waves  Volcanic Ashes






- Airport Elevation : 138 ft
- IATA code : BIO


LEBB - Bilbao

CURRENT METAR :
  • 202300Z AUTO 10002KT 9999 FEW023 18/17 Q1018

EXPIRED METARs :
  • 202230Z AUTO VRB02KT 9999 FEW021 SCT026 18/17 Q1018
  • 202200Z AUTO VRB01KT 9999 FEW024 18/17 Q1018
  • 202130Z VRB02KT 9999 FEW026 19/17 Q1018 NOSIG
  • 202100Z VRB01KT 9999 FEW022 19/17 Q1018 NOSIG
  • 202030Z VRB01KT 9999 FEW022 19/17 Q1018 NOSIG

TAF TAF LEBB
Valid from the 20 at 18:00 until the 21 at 18:00 UTC


201700Z 2018/2118 29007KT 9999 SCT035 TX22/2114Z TN15/2106Z
PROB40
TEMPO 2018/2024 3000 RA SHRA SCT030TCU
PROB30
TEMPO 2018/2024 3000 TSRA SCT035CB



MET'MAP, your aeronautical weather chart ! - Copyright ORBIFLY December 2007 - Disclaimer

ORBIFLY MET'MAP TEAM :

Programming & Development : Alexandra Zaïnal
Concept & original design : Baudouin d'Aumeries
Assistance for programming : Marc-Olivier Méhu
Technical & hardware support : Manuel Goepfert

Contact : metmap@orbifly.com




SOURCES & CREDITS :

   NOAA